CheckWX is a tool to help pilots better visualize weather data.  It is not intended as a substitute for an official pre-flight weather briefing.

23:07:20 UTC

KSGS METAR
South St Paul Municipal-Richard E Fleming Field Airport
South St Paul, Minnesota, USA
Current

32 mins ago

KSGS 202235Z AUTO 24006KT 10SM CLR M09/M22 A3064 RMK AO2 T10921220
Observed
Feb-20 @ 22:35 UTC
Wind
  • 240° at 6 KTS
Visibility
10 SM
Flight Rules
VFR
Cloud Levels
  • Clear skies
Temperature
-9°C / 16°F
Dewpoint
-22°C / -8°F
Humidity
34%
Altimeter
30.64" Hg
Pressure
1037.62 hPa
Previous

52 mins ago

KSGS 202215Z AUTO 24006KT 10SM CLR M09/M22 A3065 RMK AO2 T10901224
Observed
Feb-20 @ 22:15 UTC
Wind
  • 240° at 6 KTS
Visibility
10 SM
Flight Rules
VFR
Cloud Levels
  • Clear skies
Temperature
-9°C / 16°F
Dewpoint
-22°C / -8°F
Humidity
34%
Altimeter
30.65" Hg
Pressure
1037.92 hPa
Previous

1 hour ago

KSGS 202155Z AUTO 24006KT 10SM CLR M09/M22 A3066 RMK AO2 T10881217
Observed
Feb-20 @ 21:55 UTC
Wind
  • 240° at 6 KTS
Visibility
10 SM
Flight Rules
VFR
Cloud Levels
  • Clear skies
Temperature
-9°C / 16°F
Dewpoint
-22°C / -8°F
Humidity
34%
Altimeter
30.66" Hg
Pressure
1038.32 hPa